Time;durP1;ratioP1;P1;durP2;ratioP2;P2;SDS_P1;SDS_P2;PMS_P1;PMS_P2;Temp;Humidity;BMP_temperature;BMP_pressure;BME280_temperature;BME280_humidity;BME280_pressure;Samples;Min_cycle;Max_cycle;Signal;HPM_P1;HPM_P2
2022/12/15 00:38:48;;;;;;;1.37;0.30;;;;;;;7.20;100.00;94697.56;5111649;28;20432;-56
2022/12/15 00:41:18;;;;;;;0.30;0.20;;;;;;;7.55;100.00;94692.28;5111957;28;20446;-56
2022/12/15 00:43:46;;;;;;;0.43;0.30;;;;;;;7.25;100.00;94715.22;5111902;28;20514;-56
2022/12/15 00:49:01;;;;;;;0.40;0.30;;;;;;;7.24;100.00;94687.28;5111972;28;20540;-56
2022/12/15 01:21:54;;;;;;;0.30;0.20;;;;;;;7.42;100.00;94673.56;5115662;28;20793;-55
2022/12/15 01:24:23;;;;;;;0.30;0.20;;;;;;;7.87;100.00;94699.88;5115839;28;20423;-55
2022/12/15 01:26:51;;;;;;;0.40;0.20;;;;;;;7.51;100.00;94670.13;5115518;28;20504;-56
2022/12/15 01:29:21;;;;;;;0.70;0.70;;;;;;;7.14;100.00;94682.00;5115385;28;20535;-56
2022/12/15 01:31:49;;;;;;;0.57;0.50;;;;;;;7.28;100.00;94686.50;5115356;28;20922;-56
2022/12/15 01:34:21;;;;;;;0.40;0.20;;;;;;;6.96;100.00;94696.47;5115396;28;20432;-56
2022/12/15 01:36:49;;;;;;;0.40;0.20;;;;;;;7.18;100.00;94707.59;5115352;28;20499;-56
2022/12/15 01:39:18;;;;;;;0.60;0.60;;;;;;;7.01;100.00;94684.09;5115464;28;20478;-56
2022/12/15 01:41:45;;;;;;;0.50;0.50;;;;;;;5.90;100.00;94512.03;5115255;28;20433;-56
2022/12/15 01:44:16;;;;;;;0.40;0.20;;;;;;;6.99;100.00;94698.59;5115671;28;20800;-57
2022/12/15 01:46:48;;;;;;;0.50;0.40;;;;;;;6.54;100.00;94659.00;5114835;28;20428;-56
2022/12/15 01:49:23;;;;;;;0.40;0.30;;;;;;;6.52;100.00;94695.31;5114978;28;20463;-56
2022/12/15 01:51:55;;;;;;;0.30;0.23;;;;;;;6.15;100.00;94621.75;5114999;28;20911;-56
2022/12/15 01:54:30;;;;;;;0.40;0.30;;;;;;;6.68;100.00;94668.00;5115294;28;20431;-56
2022/12/15 01:57:04;;;;;;;0.50;0.50;;;;;;;6.89;100.00;94683.56;5113937;28;20938;-56
2022/12/15 01:59:37;;;;;;;0.30;0.20;;;;;;;7.28;100.00;94694.41;5115546;28;20412;-56
2022/12/15 02:02:07;;;;;;;0.30;0.20;;;;;;;7.26;100.00;94675.41;5115082;28;20423;-56
2022/12/15 02:04:37;;;;;;;0.30;0.20;;;;;;;6.34;100.00;94547.38;5114671;28;20968;-56
2022/12/15 02:07:06;;;;;;;0.70;0.40;;;;;;;7.09;100.00;94645.91;5114964;28;20511;-56
2022/12/15 02:09:34;;;;;;;0.57;0.57;;;;;;;7.74;100.00;94660.09;5115195;28;20447;-56
2022/12/15 02:12:15;;;;;;;0.30;0.27;;;;;;;7.48;100.00;94582.88;5114781;28;20954;-56
2022/12/15 02:14:53;;;;;;;0.40;0.20;;;;;;;7.87;100.00;94656.91;5115153;28;20784;-56
2022/12/15 02:17:33;;;;;;;0.40;0.30;;;;;;;7.25;100.00;94586.06;5114881;28;20432;-56
2022/12/15 02:20:24;;;;;;;0.30;0.30;;;;;;;6.81;100.00;94649.84;5114910;28;20484;-56
2022/12/15 02:23:26;;;;;;;0.40;0.23;;;;;;;6.64;100.00;94675.63;5114670;28;20435;-56
2022/12/15 02:26:39;;;;;;;0.30;0.23;;;;;;;6.85;100.00;94613.25;5112190;28;20471;-56
2022/12/15 02:29:17;;;;;;;0.40;0.40;;;;;;;7.14;100.00;94585.28;4999036;28;20446;-56
2022/12/15 02:31:52;;;;;;;0.47;0.47;;;;;;;7.67;100.00;94644.53;5099099;28;20522;-56
2022/12/15 02:34:27;;;;;;;0.30;0.30;;;;;;;7.38;100.00;94668.06;5114535;28;20473;-56
2022/12/15 02:36:59;;;;;;;0.40;0.20;;;;;;;6.50;100.00;94555.28;5114191;28;20939;-55
2022/12/15 02:39:29;;;;;;;0.37;0.30;;;;;;;7.24;100.00;94638.00;5114469;28;20522;-56
2022/12/15 02:41:57;;;;;;;0.50;0.40;;;;;;;7.51;100.00;94675.41;5114367;28;20436;-56
2022/12/15 02:44:29;;;;;;;0.70;0.70;;;;;;;6.77;100.00;94524.22;5114183;28;20900;-56
2022/12/15 02:47:17;;;;;;;0.50;0.50;;;;;;;7.98;100.00;94674.25;5114059;28;20424;-56
2022/12/15 02:50:07;;;;;;;0.30;0.23;;;;;;;7.96;100.00;94650.00;5113843;28;20555;-56
2022/12/15 02:52:50;;;;;;;0.47;0.47;;;;;;;7.24;100.00;94611.63;5113589;28;20467;-56
2022/12/15 02:55:26;;;;;;;0.30;0.20;;;;;;;6.55;100.00;94502.63;5114081;28;20512;-56
2022/12/15 02:58:00;;;;;;;0.40;0.30;;;;;;;7.08;100.00;94541.59;5113826;28;20428;-56
2022/12/15 03:00:33;;;;;;;0.30;0.20;;;;;;;7.24;100.00;94532.56;5114187;28;20418;-56
2022/12/15 03:03:03;;;;;;;0.30;0.20;;;;;;;8.24;100.00;94670.50;5113775;28;20512;-56
2022/12/15 03:05:32;;;;;;;0.37;0.33;;;;;;;8.40;100.00;94658.81;5113208;28;20520;-56
2022/12/15 03:08:01;;;;;;;1.33;0.60;;;;;;;8.53;100.00;94662.72;5114035;28;20505;-57
2022/12/15 03:10:29;;;;;;;0.30;0.20;;;;;;;8.29;100.00;94663.38;5113680;28;20425;-57
2022/12/15 03:12:57;;;;;;;0.30;0.20;;;;;;;8.54;100.00;94672.25;5113457;28;20475;-57
2022/12/15 03:15:26;;;;;;;0.30;0.20;;;;;;;8.23;100.00;94674.19;5113508;28;20426;-57
2022/12/15 03:18:03;;;;;;;0.30;0.30;;;;;;;8.43;100.00;94658.28;5113101;28;20428;-57
2022/12/15 03:20:32;;;;;;;0.30;0.20;;;;;;;8.52;100.00;94669.88;5113557;28;20438;-57
2022/12/15 03:23:01;;;;;;;0.40;0.40;;;;;;;8.60;100.00;94669.28;5113755;28;20460;-57
2022/12/15 03:25:29;;;;;;;0.43;0.30;;;;;;;8.49;100.00;94657.22;5113629;28;20421;-57
2022/12/15 03:27:58;;;;;;;0.77;0.77;;;;;;;8.47;100.00;94643.50;5113044;28;20429;-56
2022/12/15 03:30:26;;;;;;;0.50;0.50;;;;;;;8.61;100.00;94641.03;5113320;28;20908;-56
2022/12/15 03:32:54;;;;;;;0.30;0.20;;;;;;;8.50;100.00;94669.34;5112436;28;20468;-56
2022/12/15 03:35:24;;;;;;;0.40;0.40;;;;;;;8.10;100.00;94674.75;5113249;28;20466;-56
2022/12/15 03:37:52;;;;;;;0.30;0.20;;;;;;;8.17;100.00;94675.28;5113208;28;20508;-56
2022/12/15 03:40:21;;;;;;;0.40;0.30;;;;;;;8.34;100.00;94667.84;5113040;28;20421;-56
2022/12/15 03:42:49;;;;;;;0.30;0.20;;;;;;;8.02;100.00;94635.75;5113241;28;20480;-57
2022/12/15 03:45:18;;;;;;;0.37;0.30;;;;;;;8.37;100.00;94675.22;5113266;28;20439;-57
2022/12/15 03:47:47;;;;;;;0.50;0.40;;;;;;;8.46;100.00;94667.53;5112784;28;20433;-56
2022/12/15 03:50:18;;;;;;;0.30;0.20;;;;;;;8.49;100.00;94661.69;5112966;28;20512;-56
2022/12/15 03:52:50;;;;;;;0.50;0.30;;;;;;;7.98;100.00;94621.50;5112516;28;20428;-56
2022/12/15 03:55:19;;;;;;;0.33;0.20;;;;;;;8.17;100.00;94675.28;5113208;28;20494;-56
2022/12/15 03:57:48;;;;;;;0.30;0.20;;;;;;;8.32;100.00;94671.81;5112879;28;20463;-57
2022/12/15 04:00:18;;;;;;;1.03;0.50;;;;;;;8.32;100.00;94676.03;5113064;28;20812;-56
2022/12/15 04:02:47;;;;;;;0.40;0.37;;;;;;;7.99;100.00;94662.66;5112602;28;20428;-56
2022/12/15 04:05:20;;;;;;;0.90;0.90;;;;;;;8.13;100.00;94692.69;5112739;28;20421;-56
2022/12/15 04:07:49;;;;;;;0.60;0.60;;;;;;;7.52;100.00;94682.25;5112128;28;20439;-56
2022/12/15 04:10:18;;;;;;;1.53;1.53;;;;;;;7.52;100.00;94682.25;5112633;28;20426;-57
2022/12/15 04:12:47;;;;;;;3.43;2.10;;;;;;;7.37;100.00;94571.56;5113034;28;20433;-56
2022/12/15 04:15:15;;;;;;;1.40;1.40;;;;;;;8.25;100.00;94680.78;5112525;28;20548;-56
2022/12/15 04:17:44;;;;;;;1.27;1.17;;;;;;;7.88;100.00;94629.44;5112906;28;20439;-56
2022/12/15 04:20:11;;;;;;;0.80;0.80;;;;;;;8.27;100.00;94660.19;5112391;28;20416;-56
2022/12/15 04:22:41;;;;;;;0.40;0.40;;;;;;;8.57;100.00;94679.63;5112815;28;20414;-56
2022/12/15 05:32:08;;;;;;;0.40;0.30;;;;;;;8.13;100.00;94758.69;5111301;28;20430;-57
2022/12/15 05:34:37;;;;;;;0.30;0.30;;;;;;;7.96;100.00;94698.28;5111202;28;20532;-56
2022/12/15 05:37:06;;;;;;;0.50;0.40;;;;;;;8.22;100.00;94755.22;5111110;28;20622;-56
2022/12/15 05:39:35;;;;;;;0.50;0.40;;;;;;;8.29;100.00;94760.25;5111352;28;20540;-57
2022/12/15 05:42:04;;;;;;;0.90;0.53;;;;;;;8.51;100.00;94781.84;5111331;28;20419;-57
2022/12/15 05:44:32;;;;;;;1.47;0.70;;;;;;;7.89;100.00;94723.38;5111299;28;20507;-57
2022/12/15 05:47:01;;;;;;;0.83;0.83;;;;;;;8.27;100.00;94786.16;5111288;28;20447;-56
2022/12/15 05:49:32;;;;;;;0.97;0.97;;;;;;;8.49;100.00;94794.53;5110782;28;20472;-57
2022/12/15 05:52:03;;;;;;;0.30;0.30;;;;;;;8.29;100.00;94776.91;5111240;28;20435;-56
2022/12/15 05:54:31;;;;;;;1.23;1.17;;;;;;;7.20;100.00;94592.16;5111226;28;20470;-56
2022/12/15 05:57:00;;;;;;;0.47;0.40;;;;;;;8.31;100.00;94792.47;5113930;27;20460;-56
2022/12/15 05:59:28;;;;;;;0.60;0.60;;;;;;;7.79;100.00;94687.25;5114090;28;20982;-56
2022/12/15 06:01:56;;;;;;;0.53;0.53;;;;;;;8.10;100.00;94759.19;5115196;28;20424;-56
2022/12/15 06:04:25;;;;;;;0.40;0.40;;;;;;;8.46;100.00;94789.78;5114531;28;20425;-57
2022/12/15 06:06:55;;;;;;;0.40;0.30;;;;;;;8.32;100.00;94794.81;5114728;28;20468;-57
2022/12/15 06:09:23;;;;;;;0.50;0.40;;;;;;;8.33;100.00;94792.97;5114848;28;20410;-57
2022/12/15 06:11:51;;;;;;;1.37;0.27;;;;;;;8.09;100.00;94799.88;5114438;28;20583;-57
2022/12/15 06:14:19;;;;;;;0.70;0.70;;;;;;;8.39;100.00;94794.56;5114381;28;20474;-56
2022/12/15 06:16:48;;;;;;;1.67;1.67;;;;;;;8.58;100.00;94800.03;5114354;28;20675;-56
2022/12/15 06:19:20;;;;;;;1.10;0.97;;;;;;;8.62;100.00;94801.91;5114707;28;20447;-56
2022/12/15 06:21:48;;;;;;;1.43;1.43;;;;;;;8.07;100.00;94804.63;5114425;28;20438;-56
2022/12/15 06:24:18;;;;;;;3.03;1.83;;;;;;;7.93;100.00;94814.91;5113504;28;20928;-56
2022/12/15 06:26:46;;;;;;;14.17;2.10;;;;;;;7.80;100.00;94778.50;5114615;28;20934;-56
2022/12/15 06:29:17;;;;;;;11.93;0.70;;;;;;;8.05;100.00;94804.06;5114196;28;20482;-56
2022/12/15 06:31:45;;;;;;;1.47;1.47;;;;;;;8.24;100.00;94810.41;5114489;28;20439;-56
2022/12/15 06:34:16;;;;;;;1.07;0.97;;;;;;;8.42;100.00;94848.69;5114104;28;20428;-56
2022/12/15 06:36:44;;;;;;;1.53;1.53;;;;;;;7.77;100.00;94772.97;5114498;28;20424;-56
2022/12/15 06:39:14;;;;;;;1.50;1.40;;;;;;;8.00;100.00;94847.09;5114316;28;20438;-56
2022/12/15 06:41:44;;;;;;;1.37;1.27;;;;;;;8.28;100.00;94846.59;5114098;28;20433;-56
2022/12/15 06:44:14;;;;;;;2.10;1.00;;;;;;;8.53;100.00;94853.69;5113939;28;20429;-56
2022/12/15 06:46:44;;;;;;;1.07;0.40;;;;;;;8.47;100.00;94848.69;5113761;28;20432;-56
2022/12/15 06:49:14;;;;;;;1.43;1.23;;;;;;;8.10;100.00;94810.16;5113684;28;20817;-56
2022/12/15 06:51:43;;;;;;;0.50;0.40;;;;;;;8.48;100.00;94842.31;5114254;28;20415;-56
2022/12/15 06:54:12;;;;;;;4.10;1.13;;;;;;;8.48;100.00;94824.63;5113813;28;20432;-56
2022/12/15 06:56:41;;;;;;;1.33;1.23;;;;;;;8.26;100.00;94779.25;5113783;28;20586;-56
2022/12/15 06:59:11;;;;;;;2.97;0.87;;;;;;;8.49;100.00;94868.50;5113810;28;20420;-56
2022/12/15 07:01:40;;;;;;;2.10;2.00;;;;;;;8.44;100.00;94847.38;5113669;28;20515;-56
2022/12/15 07:04:10;;;;;;;4.70;1.60;;;;;;;8.82;100.00;94867.09;5113650;28;20435;-56
2022/12/15 07:06:39;;;;;;;1.23;1.10;;;;;;;8.42;100.00;94873.25;5113291;28;20433;-56
2022/12/15 07:09:12;;;;;;;0.40;0.40;;;;;;;8.71;100.00;94868.97;5113627;28;20424;-56
2022/12/15 07:11:40;;;;;;;1.43;1.40;;;;;;;8.71;100.00;94845.19;5113562;28;21118;-56
2022/12/15 07:14:11;;;;;;;3.60;1.80;;;;;;;8.55;100.00;94867.41;5113458;28;20435;-56
2022/12/15 07:16:39;;;;;;;1.47;1.43;;;;;;;8.23;100.00;94861.59;5113331;28;20487;-56
2022/12/15 07:19:11;;;;;;;0.90;0.90;;;;;;;8.63;100.00;94892.47;5113410;28;20942;-57
2022/12/15 07:21:39;;;;;;;4.80;2.43;;;;;;;7.98;100.00;94877.44;5113347;28;20469;-56
2022/12/15 07:24:10;;;;;;;2.63;1.27;;;;;;;8.42;100.00;94904.16;5113171;28;20435;-56
2022/12/15 07:26:39;;;;;;;3.07;2.83;;;;;;;8.38;100.00;94913.63;5112076;28;20535;-56
2022/12/15 07:29:07;;;;;;;1.37;1.27;;;;;;;8.53;100.00;94911.78;5113258;28;20434;-56
2022/12/15 07:31:37;;;;;;;2.10;2.00;;;;;;;8.67;100.00;94893.53;5113007;28;20439;-56
2022/12/15 07:34:06;;;;;;;0.73;0.60;;;;;;;8.78;100.00;94892.44;5113360;28;20433;-56
2022/12/15 07:36:34;;;;;;;1.57;1.47;;;;;;;8.70;100.00;94896.44;5113002;28;20569;-56
2022/12/15 07:39:04;;;;;;;1.93;1.83;;;;;;;8.34;100.00;94805.13;5113016;28;20533;-56
2022/12/15 07:41:33;;;;;;;2.30;2.20;;;;;;;9.08;100.00;94907.47;5112956;28;20525;-56
2022/12/15 07:44:02;;;;;;;1.53;1.07;;;;;;;9.04;100.00;94895.81;5113100;28;20413;-55
2022/12/15 07:46:30;;;;;;;1.53;1.43;;;;;;;8.88;100.00;94882.66;5112781;28;20430;-55
2022/12/15 07:49:00;;;;;;;1.60;1.50;;;;;;;9.14;100.00;94907.16;5112598;28;20507;-56
2022/12/15 07:51:28;;;;;;;1.07;1.03;;;;;;;8.79;100.00;94871.06;5112972;28;20552;-55
2022/12/15 07:53:56;;;;;;;2.40;0.80;;;;;;;8.99;100.00;94883.41;5112728;28;20433;-56
2022/12/15 07:56:25;;;;;;;2.20;1.70;;;;;;;9.23;100.00;94894.19;5112526;28;20480;-56
2022/12/15 07:58:53;;;;;;;1.20;1.10;;;;;;;8.99;100.00;94891.34;5112571;28;20436;-55
2022/12/15 08:01:21;;;;;;;3.13;2.83;;;;;;;9.24;100.00;94919.53;5111668;28;20433;-56
2022/12/15 08:03:50;;;;;;;1.70;1.20;;;;;;;8.89;100.00;94851.72;5112481;28;20433;-55
2022/12/15 08:06:19;;;;;;;2.40;1.10;;;;;;;9.31;100.00;94912.13;5112346;28;20465;-55
2022/12/15 08:08:48;;;;;;;1.60;1.47;;;;;;;9.28;100.00;94899.44;5112491;28;20496;-56
2022/12/15 08:11:19;;;;;;;1.10;1.00;;;;;;;9.04;100.00;94864.09;5112279;28;20491;-56
2022/12/15 08:13:47;;;;;;;1.27;1.20;;;;;;;9.50;100.00;94953.56;5112125;28;20430;-55
2022/12/15 08:16:36;;;;;;;0.70;0.70;;;;;;;9.26;100.00;94888.34;5112057;28;20550;-55
2022/12/15 08:19:05;;;;;;;9.37;1.73;;;;;;;8.68;100.00;94777.03;5111729;28;20464;-55
2022/12/15 08:21:35;;;;;;;4.60;2.00;;;;;;;9.35;100.00;94936.97;5112053;28;20435;-55
2022/12/15 08:24:03;;;;;;;1.67;1.67;;;;;;;9.01;100.00;94926.22;5112089;28;20420;-56
2022/12/15 08:26:31;;;;;;;3.17;3.07;;;;;;;9.36;100.00;94943.84;5111920;28;20462;-55
2022/12/15 08:29:03;;;;;;;4.90;2.33;;;;;;;9.27;100.00;94969.25;5112224;28;20441;-56
2022/12/15 08:31:52;;;;;;;1.57;1.50;;;;;;;9.35;100.00;94944.91;5111893;28;20443;-56
2022/12/15 08:34:20;;;;;;;10.23;3.63;;;;;;;9.07;100.00;94946.31;5111728;28;20802;-56
2022/12/15 08:36:50;;;;;;;3.17;2.60;;;;;;;9.34;100.00;94959.97;5111844;28;20527;-56
2022/12/15 08:39:19;;;;;;;1.73;0.70;;;;;;;9.87;100.00;94963.72;5111523;28;20436;-56
2022/12/15 08:41:47;;;;;;;0.63;0.63;;;;;;;10.02;100.00;94970.78;5111919;28;20898;-56
2022/12/15 08:44:16;;;;;;;1.57;1.47;;;;;;;9.69;100.00;94914.03;5111759;28;20939;-56
2022/12/15 08:46:44;;;;;;;0.83;0.83;;;;;;;10.23;100.00;94960.88;5111822;28;20915;-57
2022/12/15 08:49:13;;;;;;;1.37;1.37;;;;;;;9.88;100.00;94883.25;5111578;28;20470;-57
2022/12/15 08:51:50;;;;;;;2.20;2.10;;;;;;;10.22;100.00;94964.63;5111483;28;20423;-57
2022/12/15 08:54:19;;;;;;;2.43;1.43;;;;;;;10.04;100.00;94974.72;5111756;28;20431;-57
2022/12/15 08:56:48;;;;;;;1.47;0.57;;;;;;;9.95;100.00;94963.16;5111691;28;20516;-57
2022/12/15 08:59:19;;;;;;;1.13;1.00;;;;;;;10.27;100.00;94972.53;5112182;28;20422;-57
2022/12/15 09:01:48;;;;;;;1.17;0.67;;;;;;;10.33;100.00;94960.81;5111751;28;20434;-57
2022/12/15 09:04:16;;;;;;;2.50;2.30;;;;;;;10.13;100.00;94948.50;5111904;28;20417;-57
2022/12/15 09:06:45;;;;;;;0.60;0.50;;;;;;;10.14;100.00;94964.09;5111950;28;20436;-57
2022/12/15 09:09:19;;;;;;;2.60;1.67;;;;;;;10.05;100.00;94949.06;5111975;28;20777;-57
2022/12/15 09:11:48;;;;;;;1.03;1.03;;;;;;;10.08;100.00;94954.59;5111515;28;20431;-57
2022/12/15 09:14:17;;;;;;;0.60;0.60;;;;;;;10.51;100.00;94944.25;5111266;28;20437;-54
2022/12/15 09:16:49;;;;;;;0.80;0.63;;;;;;;10.42;100.00;94922.09;5111898;28;20481;-51
2022/12/15 09:19:18;;;;;;;0.97;0.53;;;;;;;10.50;100.00;94948.00;5111562;28;20442;-51
2022/12/15 09:21:48;;;;;;;1.23;1.23;;;;;;;10.48;100.00;94963.34;5111537;28;20430;-52
2022/12/15 09:24:16;;;;;;;0.70;0.60;;;;;;;10.29;100.00;94957.16;5111451;28;20514;-52
2022/12/15 09:27:01;;;;;;;1.50;1.40;;;;;;;10.55;100.00;94958.56;5111476;28;20430;-53
2022/12/15 09:29:30;;;;;;;0.70;0.60;;;;;;;10.70;100.00;94945.94;5111797;28;20427;-57
2022/12/15 09:31:59;;;;;;;1.20;0.93;;;;;;;10.53;100.00;94948.22;5114445;28;20451;-56
2022/12/15 09:34:27;;;;;;;0.93;0.83;;;;;;;9.81;100.00;94821.09;5115717;28;20453;-56
2022/12/15 09:36:56;;;;;;;0.97;0.80;;;;;;;10.59;100.00;94955.06;5114993;28;20561;-56
2022/12/15 09:39:25;;;;;;;1.03;1.03;;;;;;;10.49;100.00;94965.75;5114958;28;20466;-56
2022/12/15 09:41:58;;;;;;;1.47;1.47;;;;;;;10.35;100.00;94977.25;5115498;28;20435;-55
2022/12/15 09:44:30;;;;;;;2.60;2.40;;;;;;;10.22;100.00;94970.69;5115221;28;20930;-55
2022/12/15 09:47:06;;;;;;;2.07;1.97;;;;;;;10.58;100.00;94973.88;5114741;28;20430;-56
2022/12/15 09:49:44;;;;;;;0.53;0.53;;;;;;;10.46;100.00;94966.28;5114908;28;20467;-56
2022/12/15 09:52:14;;;;;;;2.10;2.03;;;;;;;10.47;100.00;94982.97;5113979;28;20439;-56
2022/12/15 09:54:45;;;;;;;1.83;0.87;;;;;;;10.38;100.00;94989.91;5115003;28;20428;-56
2022/12/15 09:57:25;;;;;;;4.00;0.63;;;;;;;10.35;100.00;94974.59;5115459;28;20549;-56
2022/12/15 10:00:20;;;;;;;9.43;4.10;;;;;;;9.98;100.00;94975.84;5114992;28;20927;-56
2022/12/15 10:03:17;;;;;;;16.00;1.37;;;;;;;10.33;100.00;94976.69;5106148;28;20515;-56
2022/12/15 10:06:07;;;;;;;3.03;1.27;;;;;;;10.51;100.00;94976.06;5114815;28;20431;-56
2022/12/15 10:08:49;;;;;;;0.60;0.50;;;;;;;10.47;100.00;94982.97;5114520;28;20471;-56
2022/12/15 10:11:24;;;;;;;0.63;0.63;;;;;;;10.22;100.00;94981.28;5114569;28;20473;-56
2022/12/15 10:13:57;;;;;;;0.67;0.67;;;;;;;10.34;100.00;94989.69;5114660;28;20453;-58
2022/12/15 10:16:32;;;;;;;1.20;1.10;;;;;;;10.73;100.00;94992.31;5114180;28;20558;-58
2022/12/15 10:19:08;;;;;;;0.40;0.40;;;;;;;11.01;100.00;94986.22;5114777;28;20431;-58
2022/12/15 10:21:37;;;;;;;0.40;0.40;;;;;;;11.05;100.00;94983.81;5114633;28;20788;-57
2022/12/15 10:24:15;;;;;;;0.37;0.33;;;;;;;10.87;100.00;94950.84;5114673;28;21147;-58
2022/12/15 10:27:17;;;;;;;1.03;0.80;;;;;;;11.14;100.00;94984.78;5114389;28;20450;-58
2022/12/15 10:29:47;;;;;;;2.20;2.10;;;;;;;10.90;100.00;94990.06;5114248;28;20810;-57
2022/12/15 10:32:24;;;;;;;0.40;0.40;;;;;;;11.08;100.00;94993.88;5114734;28;20784;-57
2022/12/15 10:34:52;;;;;;;0.90;0.80;;;;;;;10.60;100.00;94999.03;5114011;28;20432;-57
2022/12/15 10:37:23;;;;;;;3.13;2.33;;;;;;;10.55;100.00;94996.41;5113730;28;20506;-58
2022/12/15 10:39:51;;;;;;;2.00;0.93;;;;;;;9.89;100.00;94927.16;5114261;28;20522;-57
2022/12/15 10:42:23;;;;;;;0.60;0.60;;;;;;;10.60;100.00;95008.84;5113556;28;20432;-58
2022/12/15 10:44:54;;;;;;;1.83;1.73;;;;;;;10.75;100.00;94998.13;5114111;28;20875;-57
2022/12/15 10:47:26;;;;;;;2.73;1.10;;;;;;;10.76;100.00;94999.69;5113228;28;20423;-57
2022/12/15 10:49:55;;;;;;;4.03;2.00;;;;;;;10.56;100.00;95008.59;5113636;28;20514;-57
2022/12/15 10:52:27;;;;;;;1.53;1.53;;;;;;;10.55;100.00;95008.91;5113541;28;20441;-57
2022/12/15 10:54:56;;;;;;;1.57;1.47;;;;;;;10.00;100.00;94923.41;5113756;28;20430;-57
2022/12/15 10:57:30;;;;;;;1.23;1.23;;;;;;;10.20;100.00;94967.53;5113719;28;20466;-57
2022/12/15 11:00:28;;;;;;;1.43;1.43;;;;;;;10.61;100.00;94986.56;5114122;28;20842;-57
2022/12/15 11:02:57;;;;;;;0.50;0.50;;;;;;;10.44;100.00;94962.34;5113656;28;20511;-58
2022/12/15 11:05:26;;;;;;;2.90;1.63;;;;;;;9.88;100.00;94885.09;5113626;28;20485;-57
2022/12/15 11:08:12;;;;;;;2.60;1.37;;;;;;;10.93;100.00;94976.22;5113643;28;20906;-58
2022/12/15 11:13:36;;;;;;;0.90;0.77;;;;;;;10.15;100.00;94923.34;5113947;28;20902;-57
2022/12/15 11:16:18;;;;;;;0.60;0.60;;;;;;;10.64;100.00;95000.06;5113336;28;20515;-57
2022/12/15 11:18:51;;;;;;;1.17;1.17;;;;;;;10.34;100.00;94965.84;5113107;28;20483;-58
2022/12/15 11:21:24;;;;;;;2.50;2.40;;;;;;;10.80;100.00;95003.41;5113363;28;20924;-57
2022/12/15 11:23:59;;;;;;;1.43;1.33;;;;;;;10.95;100.00;94997.97;5113095;28;20438;-55
2022/12/15 11:26:46;;;;;;;2.33;2.13;;;;;;;10.11;100.00;94922.28;5113260;28;20509;-57
2022/12/15 11:29:29;;;;;;;2.10;2.00;;;;;;;11.03;100.00;94991.28;5113279;28;20440;-56
2022/12/15 11:31:59;;;;;;;0.63;0.63;;;;;;;11.15;100.00;94981.88;5113162;28;20423;-56
2022/12/15 11:34:37;;;;;;;2.07;1.97;;;;;;;11.27;100.00;94954.94;5113317;28;20434;-55
2022/12/15 11:37:20;;;;;;;5.00;1.33;;;;;;;11.31;100.00;94983.28;5112765;28;20460;-56
2022/12/15 11:40:00;;;;;;;1.53;1.53;;;;;;;11.78;100.00;94989.69;5113134;28;20892;-56
2022/12/15 11:42:42;;;;;;;1.77;1.67;;;;;;;11.67;100.00;94957.13;5113007;28;20456;-56
2022/12/15 11:45:19;;;;;;;0.97;0.97;;;;;;;11.40;100.00;94936.50;5113133;28;20436;-56
2022/12/15 11:47:53;;;;;;;3.47;2.33;;;;;;;11.85;100.00;94979.50;5113127;28;20452;-56
2022/12/15 11:50:29;;;;;;;2.10;2.00;;;;;;;11.62;100.00;94967.00;5112631;28;20432;-56
2022/12/15 11:53:10;;;;;;;2.80;1.93;;;;;;;11.43;100.00;94933.25;5112415;28;20951;-57
2022/12/15 11:55:46;;;;;;;2.13;2.03;;;;;;;11.43;100.00;94943.88;5112248;28;20919;-56
2022/12/15 11:58:35;;;;;;;1.27;1.23;;;;;;;11.42;100.00;94971.50;5112050;28;20603;-57
2022/12/15 12:01:14;;;;;;;5.83;1.43;;;;;;;11.66;100.00;94973.34;5112615;28;20802;-56
2022/12/15 12:03:55;;;;;;;5.77;2.70;;;;;;;11.39;100.00;94966.75;5112616;28;20423;-57
2022/12/15 12:06:34;;;;;;;2.47;2.37;;;;;;;11.89;100.00;94960.06;5111495;28;20882;-57
2022/12/15 12:09:25;;;;;;;5.20;2.83;;;;;;;11.74;100.00;94954.19;5112521;28;20441;-58
2022/12/15 12:11:59;;;;;;;4.03;1.87;;;;;;;11.97;100.00;94959.44;5111637;28;20439;-58
2022/12/15 12:14:39;;;;;;;3.07;2.87;;;;;;;12.08;100.00;94906.97;5112381;28;20515;-58
2022/12/15 12:17:15;;;;;;;4.90;2.90;;;;;;;12.61;100.00;94992.53;5112665;28;20428;-58
2022/12/15 12:19:49;;;;;;;2.57;2.37;;;;;;;12.72;100.00;94996.63;5111594;28;20431;-57
2022/12/15 12:22:23;;;;;;;1.00;1.00;;;;;;;13.10;100.00;94998.16;5111792;28;20465;-58
2022/12/15 12:24:56;;;;;;;2.03;1.90;;;;;;;13.12;100.00;94979.22;5111939;28;20434;-57
2022/12/15 12:27:33;;;;;;;5.63;2.90;;;;;;;13.23;100.00;94997.38;5112330;28;20428;-60
2022/12/15 12:30:06;;;;;;;2.50;1.83;;;;;;;13.08;100.00;94999.53;5112270;28;20429;-58
2022/12/15 12:32:43;;;;;;;0.83;0.83;;;;;;;13.22;100.00;95000.34;5111417;28;20434;-59
2022/12/15 12:35:19;;;;;;;1.33;1.23;;;;;;;13.12;100.00;94990.66;5111470;28;20430;-59
2022/12/15 12:38:10;;;;;;;4.43;1.60;;;;;;;12.78;100.00;95006.09;5111618;28;20473;-59
2022/12/15 12:40:57;;;;;;;2.90;1.57;;;;;;;12.73;100.00;95014.94;5111864;28;20466;-59
2022/12/15 12:43:32;;;;;;;2.53;2.43;;;;;;;13.07;100.00;95014.69;5111580;28;20462;-59
2022/12/15 12:46:09;;;;;;;1.00;0.80;;;;;;;12.77;100.00;95022.34;5111686;28;20462;-59
2022/12/15 12:48:41;;;;;;;1.60;1.50;;;;;;;12.85;100.00;95022.44;5111536;28;20477;-59
2022/12/15 12:51:21;;;;;;;1.20;1.10;;;;;;;12.89;100.00;95025.34;5111659;28;20586;-58
2022/12/15 12:53:50;;;;;;;1.80;1.70;;;;;;;13.07;100.00;95020.03;5111609;28;20525;-57
2022/12/15 12:56:39;;;;;;;0.60;0.60;;;;;;;13.10;100.00;95032.75;5111472;28;20925;-58
2022/12/15 12:59:38;;;;;;;0.83;0.60;;;;;;;13.14;100.00;95032.94;5111463;28;21001;-58
2022/12/15 13:02:45;;;;;;;3.40;3.20;;;;;;;13.33;100.00;95029.13;5111730;28;20517;-59
2022/12/15 13:05:27;;;;;;;1.03;1.03;;;;;;;13.01;100.00;95037.09;5113335;28;20438;-58
2022/12/15 13:08:18;;;;;;;3.53;1.60;;;;;;;13.18;100.00;95016.09;5115870;28;20499;-58
2022/12/15 13:10:48;;;;;;;3.87;3.57;;;;;;;12.90;100.00;95003.78;5115182;28;20510;-59
2022/12/15 13:13:37;;;;;;;1.17;1.17;;;;;;;13.18;100.00;95028.63;5115795;28;20514;-59
2022/12/15 13:16:11;;;;;;;2.13;1.63;;;;;;;13.08;100.00;95040.19;5115723;28;20434;-59
2022/12/15 13:18:57;;;;;;;2.30;2.20;;;;;;;13.06;100.00;95044.22;5115590;28;20498;-59
2022/12/15 13:21:53;;;;;;;0.70;0.67;;;;;;;13.30;100.00;95045.72;5115320;28;20513;-60
2022/12/15 13:24:41;;;;;;;1.87;1.77;;;;;;;13.35;100.00;95047.50;5115651;28;20429;-58
2022/12/15 13:27:15;;;;;;;1.73;1.63;;;;;;;13.60;100.00;95052.38;5115086;28;20485;-59
2022/12/15 13:30:01;;;;;;;2.53;2.40;;;;;;;13.30;100.00;95044.91;5115487;28;20531;-58
2022/12/15 13:32:33;;;;;;;1.70;1.60;;;;;;;12.86;100.00;94967.41;5114775;28;20450;-59
2022/12/15 13:35:17;;;;;;;4.13;2.00;;;;;;;13.00;100.00;95064.00;5114856;28;20494;-58
2022/12/15 13:37:49;;;;;;;3.80;3.33;;;;;;;13.12;100.00;95067.03;5115241;28;20424;-57
2022/12/15 13:40:33;;;;;;;1.37;1.30;;;;;;;13.13;100.00;95065.97;5114988;28;20472;-58
2022/12/15 13:43:10;;;;;;;6.00;3.50;;;;;;;13.16;100.00;95062.69;5114715;28;20472;-57
2022/12/15 13:45:46;;;;;;;3.33;2.13;;;;;;;13.02;100.00;95064.50;5114554;28;20507;-58
2022/12/15 13:48:38;;;;;;;1.73;1.63;;;;;;;12.93;100.00;95063.59;5114726;28;20517;-58
2022/12/15 13:51:29;;;;;;;26.83;3.03;;;;;;;12.86;100.00;95066.59;5114653;28;20421;-58
2022/12/15 13:54:02;;;;;;;3.30;2.93;;;;;;;12.61;100.00;95073.09;5115158;28;20544;-56
2022/12/15 13:56:44;;;;;;;2.03;1.93;;;;;;;12.11;100.00;95010.00;5114949;28;20420;-58
2022/12/15 13:59:20;;;;;;;2.67;2.47;;;;;;;12.42;100.00;95080.25;5114260;28;20499;-58
2022/12/15 14:01:50;;;;;;;2.40;2.30;;;;;;;12.70;100.00;95084.66;5114795;28;20503;-56
2022/12/15 14:04:21;;;;;;;2.40;2.30;;;;;;;12.64;100.00;95080.50;5114920;28;20436;-56
2022/12/15 14:06:53;;;;;;;1.23;1.03;;;;;;;12.50;100.00;95084.13;5114859;28;20451;-56
2022/12/15 14:09:25;;;;;;;1.33;1.23;;;;;;;12.59;100.00;95093.06;5114054;28;20506;-56
2022/12/15 14:11:56;;;;;;;2.27;2.07;;;;;;;12.73;100.00;95093.91;5114470;28;20911;-56
2022/12/15 14:17:18;;;;;;;1.57;1.47;;;;;;;12.53;100.00;95100.31;5113758;28;20426;-57
2022/12/15 14:19:48;;;;;;;3.80;3.50;;;;;;;12.47;100.00;95106.75;5114501;28;20477;-56
2022/12/15 14:22:24;;;;;;;5.10;4.60;;;;;;;12.13;100.00;95105.31;5114413;28;20452;-56